Hubbards, Canada
Current Conditions -  °F | °C
As of 4:00 AM on Tuesday 21 Oct 2014 (Local Time) from CYHZ Reporting Station
Clear Clear  
Wind Chill: 30°   Ceiling: Unl
Heat Index: 37°   Visibility: 15mi
Dew Point: 34°   Wind: 10mph
Humidity: 87%   Direction: 200°SSW
Pressure: 30.02"   Gusts: NA
Location:  44.63°N, 64.05°W
Report Text: CYHZ 210700Z 20009KT 15SM SKC 03/01 A3002 RMK SLP170
Loading
Personal Weather Stations






























Interactive Weather Map
Tropical Storm Tracking
New forecast layout! Learn more

10-Day Weather Forecast

Advertisements
Track Severe Weather on mobile